createdAt,value
2019-02-24T00:00:01.297Z,9.3
2019-02-24T00:05:01.377Z,9.5
2019-02-24T00:10:01.275Z,9.3
2019-02-24T00:15:01.319Z,9.2
2019-02-24T00:20:01.227Z,9.0
2019-02-24T00:25:01.327Z,8.6
2019-02-24T00:30:01.314Z,7.3
2019-02-24T00:35:01.288Z,7.0
2019-02-24T00:40:01.305Z,7.3
2019-02-24T00:45:01.382Z,7.4
2019-02-24T00:50:01.318Z,7.6
2019-02-24T00:55:01.446Z,7.9
2019-02-24T01:00:01.323Z,7.3
2019-02-24T01:05:01.292Z,7.1
2019-02-24T01:10:01.354Z,6.9
2019-02-24T01:15:02.725Z,6.9
2019-02-24T01:25:01.381Z,6.3
2019-02-24T01:30:01.543Z,6.4
2019-02-24T01:35:01.375Z,6.9
2019-02-24T01:40:01.334Z,7.4
2019-02-24T01:45:01.361Z,7.6
2019-02-24T01:50:01.297Z,7.5
2019-02-24T01:55:02.065Z,7.5
2019-02-24T02:00:01.318Z,6.7
2019-02-24T02:05:01.447Z,6.3
2019-02-24T02:10:01.226Z,5.9
2019-02-24T02:15:01.397Z,6.0
2019-02-24T02:20:01.322Z,6.3
2019-02-24T02:30:01.461Z,6.9
2019-02-24T02:40:01.351Z,6.4
2019-02-24T02:45:01.397Z,6.0
2019-02-24T02:50:01.324Z,6.3
2019-02-24T02:55:01.535Z,6.0
2019-02-24T03:00:01.388Z,6.2
2019-02-24T03:20:01.290Z,6.5
2019-02-24T03:25:01.331Z,6.3
2019-02-24T03:30:01.579Z,6.3
2019-02-24T03:35:01.385Z,6.4
2019-02-24T03:40:01.267Z,6.6
2019-02-24T03:45:01.345Z,6.8
2019-02-24T03:50:01.279Z,7.4
2019-02-24T03:55:01.416Z,7.5
2019-02-24T04:00:01.253Z,7.9
2019-02-24T04:05:01.364Z,8.0
2019-02-24T04:10:01.351Z,8.0
2019-02-24T04:15:01.391Z,7.8
2019-02-24T04:20:01.322Z,7.9
2019-02-24T04:25:01.442Z,7.5
2019-02-24T04:30:01.386Z,7.2
2019-02-24T04:35:01.394Z,7.0
2019-02-24T04:40:01.311Z,7.0
2019-02-24T04:45:01.358Z,7.1
2019-02-24T04:55:01.357Z,6.4
2019-02-24T05:00:01.358Z,6.2
2019-02-24T05:05:01.429Z,6.2
2019-02-24T05:10:01.291Z,6.4
2019-02-24T05:15:01.358Z,6.5
2019-02-24T05:20:01.320Z,6.5
2019-02-24T05:25:01.526Z,6.7
2019-02-24T05:30:01.310Z,7.1
2019-02-24T05:35:01.602Z,7.2
2019-02-24T05:40:01.296Z,7.1
2019-02-24T05:45:01.486Z,7.0
2019-02-24T05:50:01.305Z,7.0
2019-02-24T05:55:01.372Z,7.0
2019-02-24T06:00:01.462Z,6.5
2019-02-24T06:05:01.301Z,6.5
2019-02-24T06:10:02.347Z,6.4
2019-02-24T06:15:01.434Z,6.6
2019-02-24T06:20:01.271Z,6.3
2019-02-24T06:25:01.367Z,6.5
2019-02-24T06:30:06.108Z,6.6
2019-02-24T06:35:01.439Z,6.6
2019-02-24T06:40:01.283Z,6.6
2019-02-24T06:45:01.447Z,6.4
2019-02-24T06:50:01.322Z,6.3
2019-02-24T06:55:01.383Z,6.2
2019-02-24T07:00:01.334Z,5.5
2019-02-24T07:05:01.336Z,5.3
2019-02-24T07:10:01.348Z,5.4
2019-02-24T07:15:01.415Z,5.8
2019-02-24T07:20:01.357Z,5.8
2019-02-24T07:30:06.404Z,6.4
2019-02-24T07:35:01.518Z,6.4
2019-02-24T07:40:01.335Z,6.4
2019-02-24T07:45:01.461Z,6.5
2019-02-24T07:50:01.414Z,7.8
2019-02-24T08:00:01.443Z,8.5
2019-02-24T08:05:01.403Z,8.0
2019-02-24T08:10:01.344Z,8.9
2019-02-24T08:15:01.472Z,8.8
2019-02-24T08:20:01.352Z,9.2
2019-02-24T08:30:02.954Z,9.3
2019-02-24T08:35:01.416Z,9.8
2019-02-24T08:40:01.354Z,10.4
2019-02-24T08:45:01.491Z,10.4
2019-02-24T08:50:01.358Z,12.5
2019-02-24T08:55:01.420Z,12.5
2019-02-24T09:00:01.358Z,12.1
2019-02-24T09:05:01.411Z,12.3
2019-02-24T09:10:01.354Z,12.7
2019-02-24T09:15:01.504Z,12.8
2019-02-24T09:20:01.377Z,13.6
2019-02-24T09:25:03.830Z,13.7
2019-02-24T09:30:01.381Z,14.5
2019-02-24T09:35:01.524Z,14.8
2019-02-24T09:40:01.363Z,15.1
2019-02-24T09:45:01.483Z,14.8
2019-02-24T09:55:01.433Z,15.0
2019-02-24T10:00:01.446Z,15.1
2019-02-24T10:05:01.474Z,14.6
2019-02-24T10:10:01.406Z,14.6
2019-02-24T10:15:01.490Z,14.8
2019-02-24T10:25:01.372Z,15.9
2019-02-24T10:30:01.387Z,15.7
2019-02-24T10:35:01.602Z,16.1
2019-02-24T10:40:01.379Z,17.1
2019-02-24T10:45:01.376Z,16.8
2019-02-24T10:50:01.349Z,17.1
2019-02-24T10:55:01.501Z,17.6
2019-02-24T11:00:01.397Z,18.7
2019-02-24T11:05:01.443Z,19.0
2019-02-24T11:10:01.402Z,19.3
2019-02-24T11:15:01.520Z,19.4
2019-02-24T11:20:01.355Z,19.4
2019-02-24T11:25:01.517Z,19.3
2019-02-24T11:30:01.394Z,20.0
2019-02-24T11:35:01.452Z,20.0
2019-02-24T11:40:01.391Z,20.3
2019-02-24T11:45:06.486Z,20.1
2019-02-24T11:50:06.408Z,20.1
2019-02-24T11:55:01.497Z,19.7
2019-02-24T12:00:06.414Z,19.5
2019-02-24T12:05:01.559Z,19.2
2019-02-24T12:10:06.412Z,19.1
2019-02-24T12:15:06.499Z,19.7
2019-02-24T12:20:06.415Z,19.4
2019-02-24T12:30:06.514Z,19.3
2019-02-24T12:35:01.491Z,19.8
2019-02-24T12:40:01.423Z,19.5
2019-02-24T12:45:06.512Z,20.0
2019-02-24T12:50:04.065Z,19.9
2019-02-24T12:55:01.671Z,20.2
2019-02-24T13:00:01.442Z,19.4
2019-02-24T13:05:01.492Z,20.3
2019-02-24T13:10:01.453Z,20.1
2019-02-24T13:15:03.745Z,19.7
2019-02-24T13:20:01.429Z,21.1
2019-02-24T13:25:01.626Z,21.1
2019-02-24T13:30:01.404Z,21.3
2019-02-24T13:35:01.542Z,21.0
2019-02-24T13:40:01.476Z,20.6
2019-02-24T13:45:01.506Z,20.6
2019-02-24T13:50:01.504Z,20.9
2019-02-24T13:55:01.574Z,20.4
2019-02-24T14:00:01.700Z,20.4
2019-02-24T14:05:01.537Z,20.7
2019-02-24T14:10:01.485Z,20.6
2019-02-24T14:15:01.611Z,20.8
2019-02-24T14:20:01.425Z,20.7
2019-02-24T14:25:01.593Z,20.4
2019-02-24T14:30:01.417Z,20.6
2019-02-24T14:35:01.540Z,20.8
2019-02-24T14:40:01.446Z,20.8
2019-02-24T14:45:01.526Z,20.0
2019-02-24T14:50:01.448Z,20.0
2019-02-24T14:55:01.576Z,19.4
2019-02-24T15:00:06.438Z,18.6
2019-02-24T15:05:06.446Z,19.9
2019-02-24T15:15:01.496Z,18.9
2019-02-24T15:20:01.417Z,18.9
2019-02-24T15:25:06.416Z,19.1
2019-02-24T15:30:01.424Z,18.7
2019-02-24T15:35:06.417Z,18.6
2019-02-24T15:40:01.448Z,18.3
2019-02-24T15:45:01.444Z,18.8
2019-02-24T15:50:06.651Z,18.6
2019-02-24T16:00:01.618Z,19.4
2019-02-24T16:05:01.485Z,18.8
2019-02-24T16:10:01.492Z,18.6
2019-02-24T16:15:01.549Z,18.6
2019-02-24T16:20:01.429Z,18.6
2019-02-24T16:25:01.493Z,18.7
2019-02-24T16:30:01.426Z,19.2
2019-02-24T16:35:01.495Z,18.5
2019-02-24T16:40:01.431Z,18.5
2019-02-24T16:45:01.559Z,18.2
2019-02-24T16:50:01.446Z,17.9
2019-02-24T16:55:01.522Z,17.1
2019-02-24T17:00:01.415Z,16.6
2019-02-24T17:05:01.657Z,15.9
2019-02-24T17:10:01.434Z,15.6
2019-02-24T17:15:01.632Z,14.9
2019-02-24T17:20:01.432Z,14.8
2019-02-24T17:25:01.548Z,14.6
2019-02-24T17:30:01.442Z,14.8
2019-02-24T17:35:01.508Z,14.7
2019-02-24T17:40:01.429Z,15.7
2019-02-24T17:45:02.103Z,15.9
2019-02-24T17:50:01.444Z,16.8
2019-02-24T17:55:01.576Z,17.1
2019-02-24T18:00:01.391Z,18.3
2019-02-24T18:05:01.439Z,17.9
2019-02-24T18:10:01.401Z,18.9
2019-02-24T18:15:01.487Z,17.5
2019-02-24T18:20:01.454Z,17.6
2019-02-24T18:25:04.039Z,17.3
2019-02-24T18:30:01.441Z,17.8
2019-02-24T18:35:01.481Z,15.5
2019-02-24T18:40:01.419Z,15.3
2019-02-24T18:45:01.502Z,14.1
2019-02-24T18:50:01.463Z,13.3
2019-02-24T18:55:01.605Z,11.6
2019-02-24T19:00:01.520Z,11.4
2019-02-24T19:05:01.517Z,10.8
2019-02-24T19:10:01.488Z,11.0
2019-02-24T19:15:01.472Z,10.8
2019-02-24T19:20:01.421Z,10.8
2019-02-24T19:25:01.539Z,10.7
2019-02-24T19:30:01.459Z,9.7
2019-02-24T19:35:01.567Z,10.3
2019-02-24T19:40:01.428Z,11.3
2019-02-24T19:45:01.501Z,11.4
2019-02-24T19:50:01.760Z,11.0
2019-02-24T19:55:01.504Z,11.3
2019-02-24T20:00:01.442Z,10.6
2019-02-24T20:05:01.487Z,10.4
2019-02-24T20:10:01.419Z,9.7
2019-02-24T20:15:01.583Z,9.8
2019-02-24T20:20:01.427Z,8.8
2019-02-24T20:25:01.534Z,8.6
2019-02-24T20:30:01.442Z,7.4
2019-02-24T20:35:01.503Z,7.6
2019-02-24T20:40:01.440Z,6.6
2019-02-24T20:45:01.510Z,6.7
2019-02-24T20:50:01.544Z,4.5
2019-02-24T20:55:01.522Z,4.6
2019-02-24T21:00:01.440Z,5.5
2019-02-24T21:05:01.498Z,5.4
2019-02-24T21:10:01.457Z,6.7
2019-02-24T21:15:01.625Z,6.9
2019-02-24T21:20:01.462Z,6.3
2019-02-24T21:25:01.533Z,6.3
2019-02-24T21:30:01.642Z,5.4
2019-02-24T21:35:01.531Z,5.4
2019-02-24T21:40:01.538Z,5.1
2019-02-24T21:45:01.597Z,5.0
2019-02-24T21:50:01.512Z,5.4
2019-02-24T21:55:01.508Z,5.2
2019-02-24T22:00:01.444Z,5.1
2019-02-24T22:05:01.493Z,5.1
2019-02-24T22:10:01.373Z,3.8
2019-02-24T22:15:01.453Z,3.7
2019-02-24T22:20:01.475Z,4.7
2019-02-24T22:25:01.602Z,4.7
2019-02-24T22:30:01.468Z,4.5
2019-02-24T22:35:01.525Z,4.8
2019-02-24T22:40:01.479Z,3.7
2019-02-24T22:45:01.522Z,3.7
2019-02-24T22:50:01.489Z,3.5
2019-02-24T22:55:01.496Z,3.5
2019-02-24T23:00:01.478Z,4.6
2019-02-24T23:05:01.552Z,4.7
2019-02-24T23:10:01.534Z,5.3
2019-02-24T23:15:01.623Z,5.4
2019-02-24T23:20:01.472Z,4.4
2019-02-24T23:25:01.602Z,4.3
2019-02-24T23:30:01.461Z,4.0
2019-02-24T23:35:01.554Z,4.0
2019-02-24T23:40:01.478Z,3.6
2019-02-24T23:45:11.184Z,3.6
2019-02-24T23:50:01.469Z,2.7
2019-02-24T23:55:01.602Z,2.7
